Dniprodzerzhyns'k, Ukraine
Current Conditions -  °F | °C
As of 3:00 AM on Saturday 29 Nov 2014 (Local Time) from UKDD Reporting Station
Light Snow Light Snow  
Wind Chill: 28°   Ceiling: 1900
Heat Index: 28°   Visibility: 3mi
Dew Point: 25°   Wind: 0mph
Humidity: 86%   Direction: NA
Pressure: 30.33"   Gusts: NA
Location:  48.5°N, 34.61°E
Report Text: UKDD 290000Z 00000MPS 5000 -SN OVC019 M02/M04 Q1027 08510158 NOSIG
Loading
Personal Weather Stations






























Interactive Weather Map New forecast layout! Learn more

10-Day Weather Forecast

Advertisements
Track Severe Weather on mobile